Portada
METAR-TAF:

METAR-TAF

Aeroports :

Ürümqi, Xina

latitud: 43-54N, longitud: 087-28E, altitud: 654 m

Observació

L'informe es va fer fa 35 minuts, a les 04:30 UTC
Vent 4 kt del Nord
Temperatura -2°C
Humitat 63%
Pressió 1037 hPa
Visibilitat 10 km o més
sense núvols per sota de 1500 mi sense presència de cumulonimbus.

METAR: ZWWW 200430Z 35002MPS CAVOK M02/M08 Q1037 NOSIG

Hora: 11:05 (05:05 UTC)

Pronòstic

L'informe es va fer fa 8 hores i 1 minuts, a les 21:04 UTC
Pronòstic vàlid del 20 a les 00 UTC al 20 a les 24 UTC
Vent 4 kt del Sud
Visibilitat: 6000 m
Evolucionant progressivament
l' 20 a les 03 UTC al 20 a les 04 UTC
Vent 4 kt del Nord
Evolucionant progressivament
l' 20 a les 13 UTC al 20 a les 14 UTC
Vent 4 kt del Sud
Visibilitat: 2500 m
boirina

TAF: ZWWW 192104Z 2000/2024 18002MPS 6000 NSC TX02/2009Z TNM10/2023Z BECMG 2003/2004 36002MPS BECMG 2013/2014 18002MPS 2500 BR

Observacions i pronòstics meteorològics de més de 4000 aeroports (METAR i TAF).

Les estacions disponibles són els punts grocs i vermells al mapa.

Posi el ratolí al punt desitjat per veure el nom de l'estació.

Feu clic per veure les observacions i els pronòstics meteorològics.

Per canviar el mapa: feu clic els botons verds amb una creu de color negre per apropar; al botó verd amb un guió per allunyar la imatge; o en les fletxes verdes per a mapes adjacents.


METAR-TAF: